Time;durP1;ratioP1;P1;durP2;ratioP2;P2;SDS_P1;SDS_P2;PMS_P1;PMS_P2;Temp;Humidity;BMP_temperature;BMP_pressure;BME280_temperature;BME280_humidity;BME280_pressure;Samples;Min_cycle;Max_cycle;Signal;HPM_P1;HPM_P2
2021/09/26 00:02:16;;;;;;;49.78;28.17;;;;;;;;;;4990026;28;20120;-71
2021/09/26 00:04:42;;;;;;;49.67;28.55;;;;;;;;;;4993367;28;20113;-72
2021/09/26 00:07:08;;;;;;;47.22;27.25;;;;;;;;;;4993259;28;20041;-71
2021/09/26 00:09:34;;;;;;;46.70;26.08;;;;;;;;;;4997335;28;20065;-72
2021/09/26 00:12:00;;;;;;;46.55;26.42;;;;;;;;;;4991224;28;20042;-72
2021/09/26 00:14:26;;;;;;;44.80;26.40;;;;;;;;;;4989793;28;20030;-72
2021/09/26 00:16:54;;;;;;;49.20;27.85;;;;;;;;;;5022124;28;20030;-71
2021/09/26 00:19:21;;;;;;;44.53;27.15;;;;;;;;;;4996353;28;20037;-72
2021/09/26 00:21:47;;;;;;;44.13;25.65;;;;;;;;;;5022643;28;20030;-71
2021/09/26 00:24:14;;;;;;;45.65;26.73;;;;;;;;;;4993272;28;20128;-72
2021/09/26 00:26:40;;;;;;;45.88;26.00;;;;;;;;;;5026298;28;20022;-72
2021/09/26 00:29:06;;;;;;;44.33;27.67;;;;;;;;;;4991923;28;20026;-71
2021/09/26 00:31:32;;;;;;;47.55;27.08;;;;;;;;;;4991419;28;20022;-72
2021/09/26 00:33:58;;;;;;;42.50;26.23;;;;;;;;;;4991326;28;20084;-72
2021/09/26 00:36:24;;;;;;;43.00;26.55;;;;;;;;;;4988267;28;20053;-72
2021/09/26 00:38:50;;;;;;;45.83;28.45;;;;;;;;;;4996169;28;20138;-71
2021/09/26 00:41:16;;;;;;;46.72;26.38;;;;;;;;;;4994115;28;20035;-72
2021/09/26 00:43:42;;;;;;;46.85;25.73;;;;;;;;;;4993500;28;20037;-72
2021/09/26 00:46:08;;;;;;;42.28;26.77;;;;;;;;;;4993486;28;20034;-72
2021/09/26 00:48:34;;;;;;;42.80;27.02;;;;;;;;;;4993705;28;20487;-72
2021/09/26 00:51:00;;;;;;;44.13;26.08;;;;;;;;;;4989654;28;20535;-71
2021/09/26 00:53:26;;;;;;;47.25;26.10;;;;;;;;;;4992513;28;20018;-71
2021/09/26 00:55:57;;;;;;;43.72;25.80;;;;;;;;;;4987918;28;20026;-72
2021/09/26 00:58:24;;;;;;;41.05;26.50;;;;;;;;;;4993246;28;20014;-72
2021/09/26 01:00:50;;;;;;;38.95;22.88;;;;;;;;;;4986598;28;20026;-72
2021/09/26 01:03:16;;;;;;;43.45;26.00;;;;;;;;;;4991611;28;20026;-72
2021/09/26 01:05:43;;;;;;;48.90;25.63;;;;;;;;;;4990799;28;20579;-72
2021/09/26 01:08:33;;;;;;;42.80;26.23;;;;;;;;;;4995496;28;20426;-72
2021/09/26 01:10:59;;;;;;;44.13;26.38;;;;;;;;;;4987921;28;20026;-72
2021/09/26 01:13:37;;;;;;;44.72;25.33;;;;;;;;;;5021913;28;20037;-72
2021/09/26 01:16:22;;;;;;;44.30;27.00;;;;;;;;;;4983524;28;20033;-72
2021/09/26 01:19:03;;;;;;;46.03;26.23;;;;;;;;;;4994027;28;20030;-72
2021/09/26 01:21:32;;;;;;;41.87;25.40;;;;;;;;;;4985991;28;20113;-72
2021/09/26 01:24:18;;;;;;;42.63;27.58;;;;;;;;;;4991026;28;20022;-72
2021/09/26 01:26:46;;;;;;;41.72;25.92;;;;;;;;;;4990145;28;20019;-72
2021/09/26 01:29:33;;;;;;;38.83;25.27;;;;;;;;;;5020742;28;20037;-72
2021/09/26 01:32:01;;;;;;;42.85;25.10;;;;;;;;;;4987817;28;20038;-72
2021/09/26 01:34:31;;;;;;;42.42;25.17;;;;;;;;;;4983650;28;20022;-72
2021/09/26 01:37:07;;;;;;;41.85;24.70;;;;;;;;;;5017671;28;20038;-72
2021/09/26 01:39:40;;;;;;;42.13;24.05;;;;;;;;;;4990699;28;20018;-72
2021/09/26 01:42:12;;;;;;;44.25;24.83;;;;;;;;;;4988289;28;20026;-72
2021/09/26 01:44:56;;;;;;;43.38;25.98;;;;;;;;;;4984786;28;20265;-72
2021/09/26 01:47:28;;;;;;;38.55;23.77;;;;;;;;;;4992518;28;20029;-72
2021/09/26 01:49:56;;;;;;;41.47;24.70;;;;;;;;;;4987732;28;20034;-72
2021/09/26 01:52:24;;;;;;;45.78;26.02;;;;;;;;;;4985652;28;20118;-72
2021/09/26 01:54:51;;;;;;;43.40;27.23;;;;;;;;;;4995603;28;20057;-72
2021/09/26 01:57:21;;;;;;;47.60;28.20;;;;;;;;;;4987725;28;21016;-72
2021/09/26 01:59:51;;;;;;;44.30;27.17;;;;;;;;;;4987606;28;20088;-72
2021/09/26 02:02:21;;;;;;;41.00;25.85;;;;;;;;;;4990239;28;20030;-72
2021/09/26 02:04:51;;;;;;;42.92;26.90;;;;;;;;;;4988458;28;20035;-72
2021/09/26 02:07:18;;;;;;;40.88;24.52;;;;;;;;;;4990616;28;20030;-72
2021/09/26 02:09:45;;;;;;;48.47;26.83;;;;;;;;;;4991152;28;20034;-72
2021/09/26 02:12:12;;;;;;;46.25;27.55;;;;;;;;;;4987303;28;20022;-72
2021/09/26 02:14:39;;;;;;;51.50;27.98;;;;;;;;;;4988660;28;20085;-72
2021/09/26 02:17:06;;;;;;;43.00;26.58;;;;;;;;;;4991441;28;20026;-72
2021/09/26 02:19:33;;;;;;;39.58;25.92;;;;;;;;;;4991168;28;20030;-72
2021/09/26 02:22:00;;;;;;;45.53;27.30;;;;;;;;;;4990772;28;20030;-72
2021/09/26 02:24:26;;;;;;;45.13;27.63;;;;;;;;;;4991707;28;20515;-72
2021/09/26 02:26:53;;;;;;;45.15;28.13;;;;;;;;;;4991282;28;20035;-72
2021/09/26 02:29:19;;;;;;;47.70;28.92;;;;;;;;;;4991404;28;20030;-72
2021/09/26 02:31:45;;;;;;;47.70;28.08;;;;;;;;;;4989669;28;20038;-72
2021/09/26 02:34:11;;;;;;;45.90;26.27;;;;;;;;;;4989141;28;20026;-72
2021/09/26 02:36:37;;;;;;;47.33;26.67;;;;;;;;;;4989959;28;20025;-72
2021/09/26 02:39:04;;;;;;;47.88;27.38;;;;;;;;;;4991305;28;20023;-72
2021/09/26 02:41:41;;;;;;;51.72;27.73;;;;;;;;;;5010500;28;20018;-72
2021/09/26 02:44:13;;;;;;;43.45;24.75;;;;;;;;;;4992767;28;20031;-72
2021/09/26 02:46:41;;;;;;;40.78;25.17;;;;;;;;;;4991875;28;20053;-72
2021/09/26 02:49:07;;;;;;;44.58;26.05;;;;;;;;;;4987546;28;20030;-72
2021/09/26 02:51:34;;;;;;;45.85;26.77;;;;;;;;;;4992516;28;20023;-72
2021/09/26 02:54:01;;;;;;;48.45;28.42;;;;;;;;;;4989847;28;20117;-72
2021/09/26 02:56:27;;;;;;;49.83;29.27;;;;;;;;;;5000170;28;20052;-72
2021/09/26 02:58:54;;;;;;;46.08;27.90;;;;;;;;;;4993004;28;20045;-72
2021/09/26 03:01:20;;;;;;;44.35;25.52;;;;;;;;;;4998971;28;20026;-72
2021/09/26 03:03:46;;;;;;;47.22;27.77;;;;;;;;;;4991909;28;20034;-71
2021/09/26 03:06:12;;;;;;;39.53;26.65;;;;;;;;;;4996363;28;20344;-72
2021/09/26 03:08:38;;;;;;;51.92;26.77;;;;;;;;;;4993411;28;20496;-72
2021/09/26 03:11:05;;;;;;;44.97;27.50;;;;;;;;;;4994292;28;20190;-72
2021/09/26 03:13:31;;;;;;;42.45;25.33;;;;;;;;;;4993680;28;20490;-72
2021/09/26 03:15:57;;;;;;;44.63;27.08;;;;;;;;;;4993447;28;20544;-72
2021/09/26 03:18:24;;;;;;;42.10;27.65;;;;;;;;;;4995595;28;20018;-72
2021/09/26 03:20:50;;;;;;;39.35;26.00;;;;;;;;;;4996036;28;20057;-72
2021/09/26 03:23:16;;;;;;;40.47;26.48;;;;;;;;;;4992863;28;20027;-72
2021/09/26 03:25:42;;;;;;;40.85;26.40;;;;;;;;;;4989471;28;20034;-72
2021/09/26 03:28:09;;;;;;;39.85;25.42;;;;;;;;;;4992220;28;20026;-72
2021/09/26 03:30:35;;;;;;;37.55;23.52;;;;;;;;;;4993025;28;20029;-72
2021/09/26 03:33:01;;;;;;;42.95;27.33;;;;;;;;;;4992296;28;20031;-72
2021/09/26 03:35:27;;;;;;;42.35;24.60;;;;;;;;;;4983445;28;20027;-72
2021/09/26 03:37:53;;;;;;;52.63;27.05;;;;;;;;;;5001689;28;20040;-72
2021/09/26 03:40:19;;;;;;;37.88;25.08;;;;;;;;;;5001667;28;20019;-72
2021/09/26 03:42:45;;;;;;;41.75;25.13;;;;;;;;;;4988467;28;20045;-72
2021/09/26 03:45:12;;;;;;;40.30;26.13;;;;;;;;;;4991430;28;20030;-72
2021/09/26 03:47:38;;;;;;;43.17;25.25;;;;;;;;;;4993031;28;20072;-72
2021/09/26 03:50:05;;;;;;;40.78;25.73;;;;;;;;;;4990567;28;20121;-72
2021/09/26 03:52:32;;;;;;;40.05;24.65;;;;;;;;;;4991546;28;20034;-72
2021/09/26 03:54:58;;;;;;;40.65;24.33;;;;;;;;;;4999739;28;20499;-72
2021/09/26 03:57:24;;;;;;;40.58;23.80;;;;;;;;;;5006687;28;20022;-72
2021/09/26 03:59:50;;;;;;;38.58;24.13;;;;;;;;;;4992917;28;20022;-72
2021/09/26 04:02:16;;;;;;;39.28;25.60;;;;;;;;;;4993509;28;20030;-72
2021/09/26 04:04:42;;;;;;;38.33;24.92;;;;;;;;;;5021676;28;20031;-72
2021/09/26 04:07:08;;;;;;;39.58;25.50;;;;;;;;;;4993321;28;20085;-71
2021/09/26 04:09:35;;;;;;;33.72;23.20;;;;;;;;;;4994223;28;20077;-72
2021/09/26 04:12:01;;;;;;;41.30;25.80;;;;;;;;;;4993036;28;20027;-72
2021/09/26 04:14:27;;;;;;;39.15;25.58;;;;;;;;;;4990709;28;20034;-72
2021/09/26 04:16:53;;;;;;;40.60;25.98;;;;;;;;;;4995253;28;20030;-72
2021/09/26 04:19:20;;;;;;;42.92;26.70;;;;;;;;;;4991253;28;20018;-72
2021/09/26 04:21:46;;;;;;;38.15;26.58;;;;;;;;;;4990062;28;20031;-72
2021/09/26 04:24:13;;;;;;;43.13;25.30;;;;;;;;;;4988546;28;20083;-72
2021/09/26 04:26:39;;;;;;;38.63;24.35;;;;;;;;;;4999966;28;20097;-72
2021/09/26 04:29:05;;;;;;;41.97;24.55;;;;;;;;;;4994424;28;20101;-72
2021/09/26 04:31:31;;;;;;;39.28;24.13;;;;;;;;;;4994824;28;20053;-72
2021/09/26 04:33:57;;;;;;;38.20;24.60;;;;;;;;;;4989023;28;20503;-72
2021/09/26 04:36:23;;;;;;;44.88;23.75;;;;;;;;;;5005027;28;20026;-72
2021/09/26 04:38:49;;;;;;;40.88;24.75;;;;;;;;;;5001086;28;20030;-72
2021/09/26 04:41:15;;;;;;;42.20;25.98;;;;;;;;;;5000894;28;20026;-72
2021/09/26 04:43:41;;;;;;;37.25;24.60;;;;;;;;;;4986344;28;20475;-72
2021/09/26 04:46:07;;;;;;;40.38;23.95;;;;;;;;;;4990273;28;20049;-72
2021/09/26 04:48:33;;;;;;;36.97;23.63;;;;;;;;;;4992492;28;20431;-72
2021/09/26 04:50:59;;;;;;;40.65;25.65;;;;;;;;;;4991127;28;20105;-72
2021/09/26 04:53:25;;;;;;;41.20;26.33;;;;;;;;;;4998318;28;20037;-72
2021/09/26 04:55:51;;;;;;;38.45;23.00;;;;;;;;;;4991012;28;20113;-72
2021/09/26 04:58:18;;;;;;;38.00;24.45;;;;;;;;;;4992410;28;20023;-72
2021/09/26 05:00:46;;;;;;;38.50;24.35;;;;;;;;;;4991906;28;20026;-72
2021/09/26 05:03:12;;;;;;;35.63;22.83;;;;;;;;;;4992096;28;20030;-72
2021/09/26 05:05:38;;;;;;;39.78;23.95;;;;;;;;;;4993669;28;20395;-72
2021/09/26 05:08:05;;;;;;;38.85;25.00;;;;;;;;;;4992537;28;20057;-72
2021/09/26 05:10:31;;;;;;;40.50;25.83;;;;;;;;;;4992522;28;20168;-72
2021/09/26 05:12:57;;;;;;;38.83;24.55;;;;;;;;;;4993983;28;20177;-72
2021/09/26 05:15:24;;;;;;;39.20;25.23;;;;;;;;;;4983862;28;20529;-71
2021/09/26 05:17:50;;;;;;;37.67;23.35;;;;;;;;;;4990020;28;20041;-72
2021/09/26 05:20:16;;;;;;;39.00;23.30;;;;;;;;;;4988973;28;20450;-72
2021/09/26 05:22:42;;;;;;;35.72;22.77;;;;;;;;;;4990060;28;20041;-72
2021/09/26 05:25:09;;;;;;;35.53;21.90;;;;;;;;;;4988988;28;20069;-78
2021/09/26 05:27:35;;;;;;;32.83;22.33;;;;;;;;;;4991042;28;20034;-72
2021/09/26 05:30:02;;;;;;;39.70;24.27;;;;;;;;;;5021225;28;20035;-72
2021/09/26 05:32:28;;;;;;;37.85;22.77;;;;;;;;;;4997238;28;20030;-72
2021/09/26 05:34:54;;;;;;;36.08;22.73;;;;;;;;;;4987968;28;20527;-72
2021/09/26 05:37:21;;;;;;;37.08;23.08;;;;;;;;;;4989794;28;20030;-71
2021/09/26 05:39:47;;;;;;;36.97;23.95;;;;;;;;;;4985433;28;20407;-71
2021/09/26 05:42:13;;;;;;;37.53;24.48;;;;;;;;;;4991675;28;20380;-72
2021/09/26 05:44:39;;;;;;;38.90;25.75;;;;;;;;;;4990184;28;20022;-72
2021/09/26 05:47:07;;;;;;;35.45;24.15;;;;;;;;;;4991247;28;20042;-72
2021/09/26 05:49:36;;;;;;;39.95;24.33;;;;;;;;;;4991853;28;20097;-72
2021/09/26 05:52:04;;;;;;;36.92;24.05;;;;;;;;;;4994571;28;20030;-72
2021/09/26 05:54:30;;;;;;;33.67;22.42;;;;;;;;;;4988159;28;20029;-72
2021/09/26 05:56:56;;;;;;;36.78;23.48;;;;;;;;;;4989715;28;20041;-72
2021/09/26 05:59:22;;;;;;;36.95;23.52;;;;;;;;;;4988820;28;20033;-72
2021/09/26 06:01:48;;;;;;;36.50;24.17;;;;;;;;;;4989859;28;20030;-72
2021/09/26 06:04:14;;;;;;;38.83;23.20;;;;;;;;;;4990124;28;20041;-72
2021/09/26 06:06:40;;;;;;;35.97;23.90;;;;;;;;;;4989811;28;20018;-72
2021/09/26 06:09:06;;;;;;;37.33;25.05;;;;;;;;;;4992657;28;20046;-72
2021/09/26 06:11:33;;;;;;;41.22;25.48;;;;;;;;;;4999711;28;20110;-72
2021/09/26 06:13:59;;;;;;;38.53;24.52;;;;;;;;;;4989937;28;20049;-72
2021/09/26 06:16:25;;;;;;;38.35;25.33;;;;;;;;;;4988044;28;20025;-71
2021/09/26 06:18:51;;;;;;;42.53;25.63;;;;;;;;;;5021517;28;20022;-72
2021/09/26 06:21:17;;;;;;;41.22;25.90;;;;;;;;;;4989090;28;20018;-72
2021/09/26 06:23:43;;;;;;;46.45;27.02;;;;;;;;;;4994497;28;20034;-72
2021/09/26 06:26:09;;;;;;;50.60;29.73;;;;;;;;;;5019294;28;20467;-72
2021/09/26 06:28:35;;;;;;;46.00;27.92;;;;;;;;;;4986468;28;20042;-72
2021/09/26 06:31:01;;;;;;;46.58;28.08;;;;;;;;;;4991264;28;20053;-72
2021/09/26 06:33:27;;;;;;;44.20;28.20;;;;;;;;;;4998919;28;20081;-72
2021/09/26 06:35:53;;;;;;;46.78;29.30;;;;;;;;;;4987752;28;20031;-72
2021/09/26 06:38:19;;;;;;;46.05;30.10;;;;;;;;;;4989577;28;20029;-72
2021/09/26 06:40:46;;;;;;;48.55;31.42;;;;;;;;;;4992069;28;20415;-72
2021/09/26 06:43:12;;;;;;;45.42;29.63;;;;;;;;;;4993163;28;20105;-72
2021/09/26 06:45:39;;;;;;;50.90;33.80;;;;;;;;;;4995885;28;20037;-72
2021/09/26 06:48:05;;;;;;;51.72;32.40;;;;;;;;;;4997954;28;20490;-72
2021/09/26 06:50:31;;;;;;;54.58;34.22;;;;;;;;;;4989435;28;20027;-72
2021/09/26 06:52:57;;;;;;;54.55;35.10;;;;;;;;;;4991436;28;20495;-72
2021/09/26 06:55:23;;;;;;;53.78;36.30;;;;;;;;;;4992265;28;20446;-72
2021/09/26 06:57:49;;;;;;;57.35;36.83;;;;;;;;;;4991759;28;20023;-72
2021/09/26 07:00:15;;;;;;;59.28;39.97;;;;;;;;;;4991781;28;20026;-72
2021/09/26 07:02:43;;;;;;;56.45;38.05;;;;;;;;;;4992424;28;20556;-72
2021/09/26 07:05:10;;;;;;;61.08;39.47;;;;;;;;;;4986143;28;20049;-72
2021/09/26 07:07:36;;;;;;;63.33;40.08;;;;;;;;;;4989394;28;20495;-71
2021/09/26 07:10:03;;;;;;;60.83;40.55;;;;;;;;;;4982257;28;20039;-72
2021/09/26 07:12:29;;;;;;;63.63;41.78;;;;;;;;;;4996045;28;20031;-71
2021/09/26 07:15:00;;;;;;;64.35;40.10;;;;;;;;;;4987384;28;20030;-72
2021/09/26 07:17:26;;;;;;;66.50;42.42;;;;;;;;;;4990396;28;20023;-72
2021/09/26 07:19:52;;;;;;;63.28;41.30;;;;;;;;;;4987283;28;20431;-71
2021/09/26 07:22:23;;;;;;;67.32;42.30;;;;;;;;;;4993244;28;20037;-71
2021/09/26 07:24:50;;;;;;;65.15;42.60;;;;;;;;;;4989478;28;20031;-71
2021/09/26 07:27:17;;;;;;;64.82;42.55;;;;;;;;;;4991517;28;20470;-71
2021/09/26 07:29:44;;;;;;;72.38;45.72;;;;;;;;;;4988699;28;20418;-72
2021/09/26 07:32:10;;;;;;;68.40;44.45;;;;;;;;;;4989220;28;20034;-72
2021/09/26 07:34:36;;;;;;;66.82;43.03;;;;;;;;;;4987077;28;20447;-72
2021/09/26 07:37:02;;;;;;;66.22;43.60;;;;;;;;;;4990270;28;20080;-71
2021/09/26 07:39:28;;;;;;;66.45;44.22;;;;;;;;;;4988544;28;20027;-72
2021/09/26 07:41:54;;;;;;;67.20;42.97;;;;;;;;;;4993754;28;20406;-72
2021/09/26 07:44:20;;;;;;;63.85;43.00;;;;;;;;;;4990213;28;20133;-72
2021/09/26 07:46:46;;;;;;;70.22;44.08;;;;;;;;;;4992722;28;20022;-72
2021/09/26 07:49:12;;;;;;;65.72;42.70;;;;;;;;;;5023839;28;20073;-71
2021/09/26 07:51:38;;;;;;;75.50;45.88;;;;;;;;;;4993860;28;20030;-72
2021/09/26 07:54:04;;;;;;;75.80;44.50;;;;;;;;;;4983194;28;20037;-72
2021/09/26 07:56:31;;;;;;;71.28;44.17;;;;;;;;;;4994224;28;20026;-72
2021/09/26 07:58:57;;;;;;;71.70;45.45;;;;;;;;;;4992347;28;20112;-72
2021/09/26 08:01:23;;;;;;;72.85;47.05;;;;;;;;;;4993571;28;20034;-72
2021/09/26 08:03:49;;;;;;;71.28;47.10;;;;;;;;;;4989238;28;20039;-72
2021/09/26 08:06:18;;;;;;;77.50;48.53;;;;;;;;;;4993923;28;20038;-72
2021/09/26 08:08:44;;;;;;;74.32;47.15;;;;;;;;;;4995400;28;20538;-72
2021/09/26 08:11:10;;;;;;;67.82;47.10;;;;;;;;;;4992404;28;20118;-72
2021/09/26 08:13:37;;;;;;;73.03;45.47;;;;;;;;;;4993037;28;20030;-72
2021/09/26 08:16:03;;;;;;;75.10;46.92;;;;;;;;;;4992864;28;20033;-72
2021/09/26 08:18:29;;;;;;;68.55;45.05;;;;;;;;;;4992534;28;20023;-71
2021/09/26 08:20:56;;;;;;;71.18;43.72;;;;;;;;;;4998871;28;20021;-72
2021/09/26 08:23:22;;;;;;;67.18;43.50;;;;;;;;;;4992301;28;20034;-72
2021/09/26 08:25:48;;;;;;;67.30;43.97;;;;;;;;;;4989100;28;20061;-72
2021/09/26 08:28:14;;;;;;;66.13;43.75;;;;;;;;;;4994419;28;20045;-72
2021/09/26 08:30:41;;;;;;;70.57;43.65;;;;;;;;;;4994709;28;20026;-73
2021/09/26 08:33:07;;;;;;;67.13;42.17;;;;;;;;;;4998441;28;20045;-72
2021/09/26 08:35:33;;;;;;;62.05;42.83;;;;;;;;;;4994434;28;20077;-72
2021/09/26 08:37:59;;;;;;;55.97;40.30;;;;;;;;;;4993407;28;20034;-72
2021/09/26 08:40:25;;;;;;;59.38;41.95;;;;;;;;;;4991162;28;20523;-72
2021/09/26 08:42:51;;;;;;;60.00;39.10;;;;;;;;;;5000612;28;20030;-72
2021/09/26 08:45:19;;;;;;;55.88;37.05;;;;;;;;;;4988995;28;20027;-72
2021/09/26 08:47:47;;;;;;;52.28;36.47;;;;;;;;;;5021440;28;20038;-72
2021/09/26 08:50:14;;;;;;;52.78;36.25;;;;;;;;;;4992966;28;20410;-72
2021/09/26 08:52:41;;;;;;;49.65;33.42;;;;;;;;;;4991346;28;20457;-72
2021/09/26 08:55:07;;;;;;;45.30;33.10;;;;;;;;;;4993192;28;20180;-72
2021/09/26 08:57:34;;;;;;;45.05;32.15;;;;;;;;;;4993348;28;20030;-72
2021/09/26 09:00:00;;;;;;;45.85;30.38;;;;;;;;;;4991619;28;20030;-72
2021/09/26 09:02:26;;;;;;;44.33;29.98;;;;;;;;;;4990314;28;20026;-72
2021/09/26 09:04:52;;;;;;;41.80;29.25;;;;;;;;;;4993902;28;20030;-73
2021/09/26 09:07:18;;;;;;;40.70;28.48;;;;;;;;;;4995914;28;20120;-72
2021/09/26 09:09:55;;;;;;;40.28;28.73;;;;;;;;;;4992458;28;20090;-72
2021/09/26 09:12:25;;;;;;;43.20;29.00;;;;;;;;;;4983884;28;20053;-72
2021/09/26 09:14:57;;;;;;;38.03;27.35;;;;;;;;;;4988577;28;20034;-72
2021/09/26 09:17:26;;;;;;;35.85;27.23;;;;;;;;;;4985907;28;20040;-72
2021/09/26 09:20:11;;;;;;;37.55;25.38;;;;;;;;;;4989271;28;20179;-72
2021/09/26 09:22:37;;;;;;;35.17;25.60;;;;;;;;;;4990861;28;20081;-72
2021/09/26 09:25:03;;;;;;;35.63;24.88;;;;;;;;;;5015693;28;20184;-72
2021/09/26 09:27:29;;;;;;;33.38;24.23;;;;;;;;;;4988973;28;20029;-72
2021/09/26 09:29:55;;;;;;;35.38;24.77;;;;;;;;;;4988598;28;20034;-72
2021/09/26 09:32:23;;;;;;;32.35;23.45;;;;;;;;;;4990402;28;20052;-73
2021/09/26 09:34:49;;;;;;;33.83;21.70;;;;;;;;;;4990716;28;20072;-72
2021/09/26 09:37:17;;;;;;;34.00;22.08;;;;;;;;;;4996218;28;20089;-72
2021/09/26 09:40:02;;;;;;;31.55;23.30;;;;;;;;;;4995664;28;20030;-72
2021/09/26 09:42:30;;;;;;;29.60;21.25;;;;;;;;;;4995971;28;20031;-72
2021/09/26 09:44:56;;;;;;;33.55;23.65;;;;;;;;;;4990690;28;20030;-73
2021/09/26 09:47:22;;;;;;;34.72;22.52;;;;;;;;;;4992534;28;20031;-72
2021/09/26 09:49:55;;;;;;;32.20;24.35;;;;;;;;;;4996905;28;20041;-72
2021/09/26 09:52:40;;;;;;;35.38;24.98;;;;;;;;;;4994348;28;20060;-72
2021/09/26 09:55:07;;;;;;;30.55;21.95;;;;;;;;;;4987349;28;20026;-72
2021/09/26 09:57:33;;;;;;;32.33;23.70;;;;;;;;;;5003508;28;20014;-72
2021/09/26 10:00:13;;;;;;;32.92;23.13;;;;;;;;;;4987469;28;20034;-72
2021/09/26 10:02:40;;;;;;;35.72;24.50;;;;;;;;;;4993061;28;20371;-71
2021/09/26 10:05:06;;;;;;;34.78;23.58;;;;;;;;;;4988091;28;20038;-72
2021/09/26 10:07:32;;;;;;;34.33;25.88;;;;;;;;;;4994715;28;20026;-72
2021/09/26 10:09:59;;;;;;;30.27;24.15;;;;;;;;;;4989793;28;20030;-71
2021/09/26 10:12:29;;;;;;;40.25;25.08;;;;;;;;;;4988383;28;20426;-72
2021/09/26 10:15:04;;;;;;;29.17;21.80;;;;;;;;;;4987043;28;20038;-71
2021/09/26 10:17:31;;;;;;;31.48;21.38;;;;;;;;;;4997965;28;20494;-72
2021/09/26 10:19:57;;;;;;;32.03;23.48;;;;;;;;;;4989406;28;20687;-72
2021/09/26 10:22:24;;;;;;;33.10;22.08;;;;;;;;;;4991365;28;20495;-72
2021/09/26 10:24:51;;;;;;;30.42;21.15;;;;;;;;;;4985932;28;20076;-71
2021/09/26 10:27:22;;;;;;;31.30;23.50;;;;;;;;;;4988705;28;20037;-73
2021/09/26 10:29:58;;;;;;;34.43;24.07;;;;;;;;;;4989275;28;20113;-71
2021/09/26 10:32:25;;;;;;;33.38;22.90;;;;;;;;;;5020815;28;20503;-72
2021/09/26 10:34:51;;;;;;;32.95;22.70;;;;;;;;;;5012991;28;20035;-71
2021/09/26 10:37:17;;;;;;;32.33;22.38;;;;;;;;;;4989588;28;20189;-71
2021/09/26 10:39:44;;;;;;;33.10;22.10;;;;;;;;;;4995760;28;20018;-71
2021/09/26 10:42:15;;;;;;;29.50;20.63;;;;;;;;;;4992340;28;20030;-71
2021/09/26 10:44:41;;;;;;;29.55;20.90;;;;;;;;;;4988619;28;20368;-70
2021/09/26 10:47:08;;;;;;;27.33;19.60;;;;;;;;;;5030833;28;20030;-71
2021/09/26 10:49:41;;;;;;;30.25;20.75;;;;;;;;;;4994668;28;20483;-71
2021/09/26 10:52:25;;;;;;;27.70;19.60;;;;;;;;;;4987499;28;20085;-72
2021/09/26 10:54:52;;;;;;;29.77;20.33;;;;;;;;;;4993927;28;20036;-71
2021/09/26 10:57:20;;;;;;;31.38;19.55;;;;;;;;;;4989714;28;20425;-70
2021/09/26 10:59:46;;;;;;;26.10;19.05;;;;;;;;;;4987577;28;20041;-70
2021/09/26 11:02:21;;;;;;;24.95;17.23;;;;;;;;;;4987538;28;20081;-72
2021/09/26 11:04:48;;;;;;;23.35;17.58;;;;;;;;;;4986459;28;20261;-70
2021/09/26 11:07:18;;;;;;;20.75;15.00;;;;;;;;;;5005495;28;20023;-73
2021/09/26 11:09:51;;;;;;;25.45;16.40;;;;;;;;;;4997752;28;20511;-71
2021/09/26 11:12:37;;;;;;;25.17;16.67;;;;;;;;;;4985925;28;21415;-71
2021/09/26 11:15:06;;;;;;;21.73;14.93;;;;;;;;;;4986046;28;20033;-72
2021/09/26 11:17:45;;;;;;;23.88;15.85;;;;;;;;;;4992247;28;20272;-71
2021/09/26 11:20:12;;;;;;;23.27;16.30;;;;;;;;;;4986961;28;20124;-71
2021/09/26 11:22:38;;;;;;;25.23;17.73;;;;;;;;;;4991616;28;20026;-71
2021/09/26 11:25:05;;;;;;;21.80;15.27;;;;;;;;;;4989131;28;20030;-72
2021/09/26 11:27:33;;;;;;;19.98;14.57;;;;;;;;;;4992764;28;20038;-72
2021/09/26 11:30:02;;;;;;;24.02;16.58;;;;;;;;;;4990562;28;20065;-72
2021/09/26 11:32:33;;;;;;;24.65;16.90;;;;;;;;;;4996080;28;20441;-71
2021/09/26 11:35:04;;;;;;;21.17;14.85;;;;;;;;;;4988166;28;20123;-71
2021/09/26 11:37:40;;;;;;;22.10;14.40;;;;;;;;;;4993500;28;20437;-71
2021/09/26 11:40:08;;;;;;;19.50;13.38;;;;;;;;;;4994084;28;20032;-71
2021/09/26 11:42:35;;;;;;;20.55;13.70;;;;;;;;;;4989876;28;20026;-71
2021/09/26 11:45:02;;;;;;;16.33;11.75;;;;;;;;;;4987625;28;20034;-71
2021/09/26 11:47:30;;;;;;;15.55;12.00;;;;;;;;;;4992236;28;20073;-71
2021/09/26 11:50:04;;;;;;;23.65;11.68;;;;;;;;;;4988283;28;20146;-72
2021/09/26 11:52:30;;;;;;;12.20;8.43;;;;;;;;;;4985433;28;20022;-72
2021/09/26 11:54:59;;;;;;;13.60;8.80;;;;;;;;;;5016337;28;20100;-72
2021/09/26 11:57:26;;;;;;;14.40;9.65;;;;;;;;;;4987449;28;20500;-72
2021/09/26 11:59:52;;;;;;;11.52;8.60;;;;;;;;;;4988772;28;20022;-72
2021/09/26 12:02:18;;;;;;;13.93;8.95;;;;;;;;;;4994698;28;20085;-72
2021/09/26 12:04:44;;;;;;;12.73;7.25;;;;;;;;;;4984940;28;20057;-71
2021/09/26 12:07:11;;;;;;;10.73;7.75;;;;;;;;;;4991904;28;20042;-72
2021/09/26 12:09:38;;;;;;;10.85;7.65;;;;;;;;;;4989322;28;20046;-72
2021/09/26 12:12:07;;;;;;;12.85;8.68;;;;;;;;;;5002482;28;20030;-71
2021/09/26 12:14:33;;;;;;;14.57;8.82;;;;;;;;;;4994420;28;20023;-71
2021/09/26 12:17:00;;;;;;;14.48;8.02;;;;;;;;;;5000132;28;20076;-72
2021/09/26 12:19:27;;;;;;;13.32;7.60;;;;;;;;;;4989673;28;20109;-71
2021/09/26 12:22:11;;;;;;;10.23;6.72;;;;;;;;;;4994164;28;20022;-71
2021/09/26 12:24:53;;;;;;;10.15;6.20;;;;;;;;;;4984674;28;20037;-71
2021/09/26 12:27:30;;;;;;;9.13;6.00;;;;;;;;;;4996597;28;20116;-71
2021/09/26 12:30:02;;;;;;;7.72;5.15;;;;;;;;;;4988797;28;20034;-72
2021/09/26 12:32:31;;;;;;;12.90;7.68;;;;;;;;;;4987247;28;20260;-72
2021/09/26 12:34:58;;;;;;;12.75;8.82;;;;;;;;;;5017241;28;20477;-72
2021/09/26 12:37:28;;;;;;;12.73;7.43;;;;;;;;;;4990338;28;20030;-70
2021/09/26 12:39:55;;;;;;;10.70;5.47;;;;;;;;;;4985221;28;20072;-70
2021/09/26 12:42:23;;;;;;;11.00;5.10;;;;;;;;;;4990602;28;20026;-71
2021/09/26 12:44:49;;;;;;;10.38;5.97;;;;;;;;;;5018237;28;20033;-70
2021/09/26 12:47:16;;;;;;;11.68;5.03;;;;;;;;;;4997100;28;20045;-70
2021/09/26 12:49:44;;;;;;;8.32;5.35;;;;;;;;;;4997378;28;20036;-70
2021/09/26 12:52:21;;;;;;;12.45;7.75;;;;;;;;;;5001401;28;20053;-71
2021/09/26 12:54:54;;;;;;;12.70;7.78;;;;;;;;;;4987526;28;20026;-71
2021/09/26 12:57:25;;;;;;;12.27;6.07;;;;;;;;;;4990658;28;20038;-70
2021/09/26 13:00:09;;;;;;;13.37;4.60;;;;;;;;;;4989920;28;20025;-72
2021/09/26 13:02:40;;;;;;;8.90;5.28;;;;;;;;;;4991061;28;20393;-70
2021/09/26 13:05:08;;;;;;;7.35;4.97;;;;;;;;;;4986171;28;20084;-71
2021/09/26 13:07:34;;;;;;;12.65;4.85;;;;;;;;;;4990867;28;20506;-70
2021/09/26 13:10:09;;;;;;;8.10;4.72;;;;;;;;;;4998467;28;20494;-70
2021/09/26 13:12:35;;;;;;;10.48;4.40;;;;;;;;;;4990010;28;20409;-71
2021/09/26 13:15:03;;;;;;;10.10;4.22;;;;;;;;;;4988089;28;20022;-71
2021/09/26 13:17:29;;;;;;;8.70;3.95;;;;;;;;;;4993109;28;20030;-70
2021/09/26 13:19:56;;;;;;;10.70;4.50;;;;;;;;;;5020274;28;20036;-71
2021/09/26 13:22:24;;;;;;;8.52;4.60;;;;;;;;;;4986690;28;20497;-72
2021/09/26 13:24:50;;;;;;;8.10;4.82;;;;;;;;;;4983717;28;20090;-70
2021/09/26 13:27:32;;;;;;;10.82;5.32;;;;;;;;;;5022362;28;20022;-70
2021/09/26 13:30:04;;;;;;;12.00;5.25;;;;;;;;;;4991413;28;20062;-71
2021/09/26 13:32:32;;;;;;;11.15;4.72;;;;;;;;;;5011337;28;20069;-69
2021/09/26 13:35:08;;;;;;;12.05;5.43;;;;;;;;;;4989435;28;20419;-71
2021/09/26 13:37:34;;;;;;;12.93;5.90;;;;;;;;;;5004858;28;20018;-71
2021/09/26 13:40:04;;;;;;;11.98;5.80;;;;;;;;;;4989622;28;20045;-71
2021/09/26 13:42:34;;;;;;;13.73;5.55;;;;;;;;;;4988039;28;20093;-70
2021/09/26 13:45:03;;;;;;;10.60;5.90;;;;;;;;;;4982112;28;20035;-71
2021/09/26 13:47:29;;;;;;;8.90;5.47;;;;;;;;;;4990070;28;20038;-71
2021/09/26 13:49:56;;;;;;;11.77;6.05;;;;;;;;;;4988039;28;20034;-71
2021/09/26 13:52:23;;;;;;;11.15;6.13;;;;;;;;;;4993164;28;20029;-70
2021/09/26 13:54:50;;;;;;;10.93;6.75;;;;;;;;;;4989601;28;20030;-70
2021/09/26 13:57:16;;;;;;;14.60;8.60;;;;;;;;;;4990903;28;20465;-68
2021/09/26 13:59:42;;;;;;;10.48;6.70;;;;;;;;;;4995727;28;20030;-69
2021/09/26 14:02:09;;;;;;;12.02;7.10;;;;;;;;;;4989252;28;20517;-70
2021/09/26 14:04:35;;;;;;;13.30;8.05;;;;;;;;;;4988138;28;20266;-70
2021/09/26 14:07:01;;;;;;;12.38;7.38;;;;;;;;;;4999310;28;20026;-69
2021/09/26 14:09:27;;;;;;;10.93;6.50;;;;;;;;;;4992462;28;20041;-69
2021/09/26 14:11:54;;;;;;;14.95;7.82;;;;;;;;;;4997571;28;20495;-68
2021/09/26 14:14:20;;;;;;;14.65;8.70;;;;;;;;;;4986682;28;20034;-69
2021/09/26 14:16:46;;;;;;;12.68;8.40;;;;;;;;;;4989421;28;20030;-71
2021/09/26 14:19:13;;;;;;;16.63;8.75;;;;;;;;;;4990799;28;20022;-70
2021/09/26 14:21:40;;;;;;;13.23;7.57;;;;;;;;;;4990905;28;20018;-70
2021/09/26 14:24:06;;;;;;;13.00;8.52;;;;;;;;;;4998440;28;20075;-71